Time;durP1;ratioP1;P1;durP2;ratioP2;P2;SDS_P1;SDS_P2;PMS_P1;PMS_P2;Temp;Humidity;BMP_temperature;BMP_pressure;BME280_temperature;BME280_humidity;BME280_pressure;Samples;Min_cycle;Max_cycle;Signal;HPM_P1;HPM_P2
2022/12/31 00:00:11;;;;;;;0.30;0.20;;;;;;;14.75;83.79;99187.09;340540;29;1029;-73
2022/12/31 00:00:23;;;;;;;0.35;0.20;;;;;;;14.83;83.79;99189.28;341622;28;1264;-72
2022/12/31 00:00:37;;;;;;;0.57;0.20;;;;;;;14.80;83.61;99188.63;340283;28;1582;-73
2022/12/31 00:00:50;;;;;;;0.40;0.30;;;;;;;14.71;83.57;99190.00;339206;29;1810;-73
2022/12/31 00:01:07;;;;;;;0.20;0.20;;;;;;;14.74;83.70;99189.81;339576;28;2703;-71
2022/12/31 00:01:21;;;;;;;0.50;0.30;;;;;;;14.80;83.72;99186.84;340794;28;1287;-74
2022/12/31 00:01:33;;;;;;;0.65;0.30;;;;;;;14.81;83.63;99192.91;340758;29;1335;-73
2022/12/31 00:01:45;;;;;;;0.90;0.30;;;;;;;14.84;83.47;99190.13;340801;29;1336;-73
2022/12/31 00:01:57;;;;;;;0.80;0.30;;;;;;;14.84;83.41;99177.03;340726;28;1711;-73
2022/12/31 00:02:09;;;;;;;0.20;0.20;;;;;;;14.82;83.42;99182.34;341773;28;1773;-73
2022/12/31 00:02:21;;;;;;;0.20;0.20;;;;;;;14.87;83.18;99192.56;340621;28;1268;-72
2022/12/31 00:02:34;;;;;;;0.22;0.22;;;;;;;14.82;83.16;99192.00;340179;28;1149;-71
2022/12/31 00:02:46;;;;;;;0.50;0.20;;;;;;;14.81;83.32;99195.53;340130;28;1202;-72
2022/12/31 00:02:58;;;;;;;0.50;0.20;;;;;;;14.81;83.25;99200.75;340281;29;1742;-70
2022/12/31 00:03:10;;;;;;;0.35;0.10;;;;;;;14.78;83.29;99197.38;340766;29;1251;-72
2022/12/31 00:03:23;;;;;;;0.20;0.20;;;;;;;14.78;83.38;99189.53;341384;28;1229;-73
2022/12/31 00:03:38;;;;;;;0.20;0.20;;;;;;;14.74;83.47;99193.25;341267;28;1108;-73
2022/12/31 00:03:50;;;;;;;0.20;0.20;;;;;;;14.76;83.68;99193.19;340840;29;1033;-72
2022/12/31 00:04:02;;;;;;;0.20;0.20;;;;;;;14.70;83.79;99183.91;341510;28;1200;-73
2022/12/31 00:04:14;;;;;;;0.20;0.20;;;;;;;14.68;83.83;99191.00;339894;29;1745;-73
2022/12/31 00:04:26;;;;;;;0.40;0.20;;;;;;;14.77;83.67;99192.25;341326;28;1251;-73
2022/12/31 00:04:38;;;;;;;0.90;0.30;;;;;;;14.74;83.57;99187.19;341387;28;1233;-73
2022/12/31 00:04:50;;;;;;;0.57;0.30;;;;;;;14.71;83.68;99180.38;341903;28;1253;-73
2022/12/31 00:05:03;;;;;;;0.50;0.28;;;;;;;14.71;83.75;99185.59;341831;28;2766;-73
2022/12/31 00:05:15;;;;;;;0.20;0.20;;;;;;;14.75;83.59;99188.91;341384;28;1804;-73
2022/12/31 00:05:30;;;;;;;0.20;0.20;;;;;;;14.86;83.39;99185.66;341324;28;1101;-72
2022/12/31 00:05:42;;;;;;;0.20;0.20;;;;;;;14.79;83.31;99187.78;341163;28;1024;-71
2022/12/31 00:05:54;;;;;;;0.30;0.30;;;;;;;14.85;83.20;99186.56;341157;28;1025;-73
2022/12/31 00:06:35;;;;;;;0.30;0.30;;;;;;;14.80;83.29;99188.63;340976;28;1248;-72
2022/12/31 00:06:47;;;;;;;0.38;0.20;;;;;;;14.87;83.02;99184.69;344934;28;1358;-73
2022/12/31 00:06:59;;;;;;;0.35;0.20;;;;;;;14.86;83.17;99183.03;343972;28;2424;-73
2022/12/31 00:07:11;;;;;;;0.25;0.20;;;;;;;14.83;83.06;99186.69;343651;28;1834;-73
2022/12/31 00:07:23;;;;;;;0.40;0.20;;;;;;;14.82;83.15;99189.38;340190;28;1661;-74
2022/12/31 00:07:35;;;;;;;0.47;0.30;;;;;;;14.86;83.06;99177.78;340850;28;2587;-73
2022/12/31 00:07:46;;;;;;;0.30;0.30;;;;;;;14.90;82.95;99189.78;341071;29;859;-73
2022/12/31 00:07:58;;;;;;;0.20;0.20;;;;;;;14.93;82.46;99182.59;340134;29;1456;-73
2022/12/31 00:08:10;;;;;;;0.20;0.20;;;;;;;14.93;82.61;99189.56;339310;29;1074;-73
2022/12/31 00:08:23;;;;;;;0.30;0.20;;;;;;;14.89;82.58;99182.84;345592;28;1211;-73
2022/12/31 00:08:34;;;;;;;0.40;0.20;;;;;;;14.90;82.69;99189.78;340115;28;1832;-73
2022/12/31 00:08:47;;;;;;;0.50;0.30;;;;;;;14.86;82.82;99191.72;338336;29;1036;-73
2022/12/31 00:09:03;;;;;;;0.30;0.30;;;;;;;14.85;83.04;99191.78;339903;29;1633;-73
2022/12/31 00:09:14;;;;;;;0.20;0.20;;;;;;;14.92;82.65;99191.34;340681;29;1191;-73
2022/12/31 00:09:26;;;;;;;0.20;0.20;;;;;;;14.97;82.46;99196.34;339688;29;1110;-74
2022/12/31 00:09:38;;;;;;;0.70;0.30;;;;;;;14.96;82.29;99189.41;338825;28;1590;-73
2022/12/31 00:09:50;;;;;;;0.70;0.30;;;;;;;14.99;82.17;99189.25;338019;29;2006;-73
2022/12/31 00:10:03;;;;;;;1.00;0.30;;;;;;;14.96;82.32;99189.41;338337;29;1265;-73
2022/12/31 00:10:15;;;;;;;1.00;0.20;;;;;;;14.92;82.42;99185.28;338335;29;1302;-73
2022/12/31 00:10:28;;;;;;;0.22;0.20;;;;;;;14.94;82.36;99199.13;339654;29;1070;-73
2022/12/31 00:10:40;;;;;;;0.30;0.20;;;;;;;14.86;82.31;99189.09;339345;29;1665;-73
2022/12/31 00:10:52;;;;;;;0.30;0.20;;;;;;;14.86;82.63;99186.47;340812;29;1299;-73
2022/12/31 00:11:07;;;;;;;0.20;0.20;;;;;;;14.85;82.59;99202.25;340805;29;1054;-74
2022/12/31 00:11:21;;;;;;;0.20;0.20;;;;;;;14.93;82.55;99200.91;340616;28;1174;-74
2022/12/31 00:11:35;;;;;;;0.20;0.20;;;;;;;14.98;82.21;99187.56;340034;28;1642;-74
2022/12/31 00:11:47;;;;;;;0.20;0.20;;;;;;;14.93;82.18;99179.09;339981;28;1808;-73
2022/12/31 00:11:59;;;;;;;0.50;0.30;;;;;;;14.92;82.14;99187.91;339892;28;958;-73
2022/12/31 00:12:11;;;;;;;0.75;0.30;;;;;;;14.98;81.95;99198.03;339685;29;1030;-73
2022/12/31 00:12:24;;;;;;;0.68;0.22;;;;;;;15.00;81.97;99196.16;340666;28;1720;-71
2022/12/31 00:12:37;;;;;;;0.70;0.20;;;;;;;15.10;81.67;99173.75;341479;28;1006;-73
2022/12/31 00:12:49;;;;;;;0.32;0.28;;;;;;;15.18;81.25;99195.06;340388;28;1783;-73
2022/12/31 00:13:01;;;;;;;0.40;0.30;;;;;;;15.16;81.31;99196.09;339985;29;1231;-73
2022/12/31 00:13:16;;;;;;;0.30;0.22;;;;;;;15.10;81.25;99192.06;340642;28;1027;-73
2022/12/31 00:13:28;;;;;;;0.30;0.25;;;;;;;15.00;81.61;99195.31;339813;29;1023;-72
2022/12/31 00:13:45;;;;;;;0.20;0.20;;;;;;;15.01;81.46;99190.00;339955;28;1031;-72
2022/12/31 00:13:58;;;;;;;0.20;0.20;;;;;;;15.00;81.67;99211.03;340480;28;1733;-74
2022/12/31 00:14:09;;;;;;;0.25;0.20;;;;;;;15.00;81.61;99197.94;340807;28;1208;-73
2022/12/31 00:14:21;;;;;;;0.30;0.20;;;;;;;15.01;81.59;99192.63;340309;28;1571;-72
2022/12/31 00:14:33;;;;;;;0.22;0.22;;;;;;;15.04;81.48;99197.66;340736;28;1191;-72
2022/12/31 00:14:45;;;;;;;0.30;0.30;;;;;;;15.03;81.79;99201.22;341806;28;1037;-73
2022/12/31 00:14:57;;;;;;;0.30;0.30;;;;;;;15.00;81.67;99201.38;341317;28;1816;-73
2022/12/31 00:15:09;;;;;;;0.28;0.28;;;;;;;14.97;81.85;99199.81;346321;28;1191;-73
2022/12/31 00:15:21;;;;;;;0.28;0.28;;;;;;;14.94;81.92;99201.75;343315;28;1374;-74
2022/12/31 00:15:33;;;;;;;0.40;0.30;;;;;;;14.96;81.87;99186.78;340191;28;1812;-73
2022/12/31 00:15:48;;;;;;;0.28;0.20;;;;;;;15.00;81.88;99221.50;341127;29;1158;-70
2022/12/31 00:16:08;;;;;;;0.17;0.17;;;;;;;15.08;81.15;99188.69;340611;29;1817;-72
2022/12/31 00:16:27;;;;;;;0.20;0.20;;;;;;;15.12;81.04;99203.28;340529;29;1413;-73
2022/12/31 00:16:40;;;;;;;0.20;0.20;;;;;;;15.13;80.74;99212.84;340928;29;1092;-74
2022/12/31 00:16:55;;;;;;;0.20;0.20;;;;;;;15.12;80.78;99208.53;340866;29;1292;-73
2022/12/31 00:17:07;;;;;;;0.20;0.20;;;;;;;15.10;80.60;99192.06;340404;28;1874;-72
2022/12/31 00:17:19;;;;;;;0.20;0.13;;;;;;;15.09;80.55;99187.78;341881;28;1361;-72
2022/12/31 00:17:31;;;;;;;0.20;0.10;;;;;;;15.07;80.84;99194.88;342121;28;1082;-72
2022/12/31 00:17:43;;;;;;;0.20;0.20;;;;;;;15.02;81.32;99194.28;341856;28;1200;-73
2022/12/31 00:17:55;;;;;;;0.30;0.20;;;;;;;14.95;81.27;99199.03;340534;29;1114;-72
2022/12/31 00:18:07;;;;;;;0.40;0.20;;;;;;;14.94;81.54;99204.38;340823;28;1594;-73
2022/12/31 00:18:19;;;;;;;0.98;0.30;;;;;;;14.97;81.46;99199.81;341405;28;1157;-73
2022/12/31 00:18:31;;;;;;;0.65;0.30;;;;;;;15.08;81.31;99207.03;342049;28;1228;-73
2022/12/31 00:18:45;;;;;;;0.65;0.30;;;;;;;15.02;81.07;99202.16;340938;28;1869;-72
2022/12/31 00:18:59;;;;;;;0.40;0.20;;;;;;;15.09;81.17;99200.88;341095;28;1086;-73
2022/12/31 00:19:11;;;;;;;0.30;0.20;;;;;;;15.09;81.11;99210.47;341665;28;1072;-73
2022/12/31 00:19:23;;;;;;;0.35;0.20;;;;;;;15.11;81.10;99204.25;340528;28;1632;-73
2022/12/31 00:19:35;;;;;;;0.20;0.20;;;;;;;15.12;81.04;99200.66;342080;28;1038;-73
2022/12/31 00:19:47;;;;;;;0.20;0.20;;;;;;;15.10;80.92;99210.38;341595;28;1138;-73
2022/12/31 00:19:59;;;;;;;0.20;0.20;;;;;;;15.08;81.06;99204.41;340860;28;1253;-73
2022/12/31 00:20:11;;;;;;;0.25;0.20;;;;;;;15.06;80.95;99194.97;340808;28;1021;-73
2022/12/31 00:20:23;;;;;;;0.28;0.20;;;;;;;15.09;81.33;99205.25;340865;28;1684;-72
2022/12/31 00:20:40;;;;;;;0.25;0.25;;;;;;;15.08;81.08;99212.25;340308;28;1166;-73
2022/12/31 00:20:52;;;;;;;0.20;0.20;;;;;;;15.07;81.24;99207.09;339422;28;1160;-72
2022/12/31 00:21:08;;;;;;;0.70;0.22;;;;;;;15.07;81.26;99202.72;340399;29;1220;-72
2022/12/31 00:21:21;;;;;;;2.30;0.30;;;;;;;15.08;80.94;99204.41;340664;28;1380;-73
2022/12/31 00:21:34;;;;;;;1.70;0.20;;;;;;;15.08;80.89;99193.94;340095;28;1741;-73
2022/12/31 00:21:49;;;;;;;0.20;0.20;;;;;;;15.04;81.12;99213.38;339907;29;1690;-72
2022/12/31 00:22:01;;;;;;;0.30;0.30;;;;;;;15.01;81.28;99197.84;340831;29;1075;-72
2022/12/31 00:22:13;;;;;;;0.20;0.20;;;;;;;15.06;81.35;99206.25;339836;28;2141;-73
2022/12/31 00:22:25;;;;;;;0.20;0.20;;;;;;;15.01;81.38;99191.75;340200;29;1462;-73
2022/12/31 00:22:37;;;;;;;0.20;0.20;;;;;;;14.99;81.54;99199.72;339533;28;2440;-73
2022/12/31 00:22:48;;;;;;;0.57;0.20;;;;;;;15.02;81.49;99204.75;341070;28;1151;-73
2022/12/31 00:23:00;;;;;;;0.60;0.20;;;;;;;15.08;81.32;99198.34;340658;28;1523;-71
2022/12/31 00:23:13;;;;;;;0.20;0.20;;;;;;;15.05;81.60;99195.88;341687;28;1189;-73
2022/12/31 00:23:25;;;;;;;0.20;0.20;;;;;;;14.95;81.50;99203.41;342310;28;1470;-73
2022/12/31 00:23:37;;;;;;;0.20;0.20;;;;;;;14.99;81.62;99207.56;340709;28;1656;-72
2022/12/31 00:23:49;;;;;;;0.40;0.20;;;;;;;15.00;81.55;99206.63;340238;28;1813;-73
2022/12/31 00:24:03;;;;;;;0.50;0.30;;;;;;;14.97;81.61;99201.59;340635;29;1587;-73
2022/12/31 00:24:15;;;;;;;0.28;0.22;;;;;;;14.99;81.66;99207.56;344051;28;1305;-73
2022/12/31 00:24:29;;;;;;;1.10;0.20;;;;;;;14.91;81.59;99208.00;339481;29;1071;-73
2022/12/31 00:24:42;;;;;;;1.25;0.30;;;;;;;15.01;81.52;99203.09;339456;28;1795;-72
2022/12/31 00:24:53;;;;;;;0.68;0.20;;;;;;;14.94;81.65;99206.97;341592;28;1129;-72
2022/12/31 00:25:06;;;;;;;0.25;0.20;;;;;;;14.96;81.88;99195.47;341549;28;1023;-73
2022/12/31 00:25:20;;;;;;;0.45;0.25;;;;;;;14.96;82.30;99199.88;341253;28;1559;-70
2022/12/31 00:25:34;;;;;;;0.60;0.30;;;;;;;15.00;81.96;99197.94;339463;28;1963;-72
2022/12/31 00:25:46;;;;;;;0.30;0.20;;;;;;;14.94;82.06;99202.56;340052;28;2087;-71
2022/12/31 00:26:13;;;;;;;0.20;0.20;;;;;;;14.93;82.21;99214.00;340609;29;1210;-71
2022/12/31 00:26:28;;;;;;;0.30;0.30;;;;;;;15.01;81.92;99203.09;339325;28;1345;-72
2022/12/31 00:26:40;;;;;;;0.30;0.30;;;;;;;14.99;81.92;99210.19;339604;29;1070;-73
2022/12/31 00:26:52;;;;;;;0.30;0.30;;;;;;;15.02;81.58;99202.16;339932;29;2270;-73
2022/12/31 00:27:04;;;;;;;0.38;0.30;;;;;;;14.98;81.95;99203.25;340593;29;1265;-73
2022/12/31 00:27:15;;;;;;;0.30;0.30;;;;;;;14.94;82.27;99213.06;340078;28;1114;-73
2022/12/31 00:27:31;;;;;;;0.30;0.30;;;;;;;14.94;82.64;99209.59;339457;28;1036;-73
2022/12/31 00:27:43;;;;;;;0.30;0.30;;;;;;;14.93;82.50;99205.28;339417;29;1059;-72
2022/12/31 00:27:55;;;;;;;0.90;0.30;;;;;;;14.89;82.57;99204.63;338175;28;1890;-70
2022/12/31 00:28:07;;;;;;;1.00;0.20;;;;;;;14.92;82.81;99193.13;338171;29;1828;-72
2022/12/31 00:28:19;;;;;;;0.20;0.20;;;;;;;14.85;82.93;99207.50;339742;28;1683;-72
2022/12/31 00:28:31;;;;;;;0.32;0.25;;;;;;;14.82;83.02;99212.91;340279;28;1498;-74
2022/12/31 00:28:44;;;;;;;0.30;0.30;;;;;;;14.79;83.17;99206.09;339739;29;994;-72
2022/12/31 00:28:58;;;;;;;0.50;0.22;;;;;;;14.84;83.32;99200.59;340133;28;1151;-70
2022/12/31 00:29:10;;;;;;;0.43;0.20;;;;;;;14.87;83.34;99229.19;338930;29;1239;-73
2022/12/31 00:29:22;;;;;;;0.20;0.20;;;;;;;14.88;82.81;99212.56;340972;28;1471;-73
2022/12/31 00:29:34;;;;;;;0.20;0.20;;;;;;;14.93;82.91;99205.28;340954;29;1161;-73
2022/12/31 00:29:46;;;;;;;0.20;0.20;;;;;;;14.97;82.64;99206.81;340755;28;1302;-73
2022/12/31 00:29:58;;;;;;;0.32;0.20;;;;;;;14.89;82.78;99201.16;341699;28;1078;-74
2022/12/31 00:30:15;;;;;;;1.05;0.25;;;;;;;14.97;82.74;99196.34;340711;29;1114;-72
2022/12/31 00:30:27;;;;;;;1.00;0.30;;;;;;;14.99;82.81;99207.56;340471;29;1298;-73
2022/12/31 00:30:40;;;;;;;0.40;0.20;;;;;;;14.89;82.90;99188.06;341855;28;1714;-73
2022/12/31 00:30:52;;;;;;;0.20;0.20;;;;;;;14.88;83.36;99202.94;342685;28;1222;-73
2022/12/31 00:31:07;;;;;;;1.90;0.20;;;;;;;14.87;83.33;99213.47;342328;28;960;-72
2022/12/31 00:31:22;;;;;;;2.60;0.20;;;;;;;14.81;83.54;99196.38;341380;28;1833;-73
2022/12/31 00:31:37;;;;;;;0.80;0.20;;;;;;;14.78;83.64;99197.38;342286;28;1063;-72
2022/12/31 00:31:49;;;;;;;0.32;0.20;;;;;;;14.81;83.71;99200.75;340756;28;1524;-72
2022/12/31 00:32:00;;;;;;;0.28;0.28;;;;;;;14.76;83.62;99214.09;340707;29;1216;-72
2022/12/31 00:32:12;;;;;;;0.30;0.30;;;;;;;14.75;84.00;99202.81;340142;28;1692;-71
2022/12/31 00:32:27;;;;;;;0.28;0.28;;;;;;;14.69;84.19;99205.78;339845;29;1845;-71
2022/12/31 00:32:39;;;;;;;0.20;0.20;;;;;;;14.62;84.41;99212.28;339443;29;1277;-72
2022/12/31 00:32:52;;;;;;;0.28;0.20;;;;;;;14.65;84.46;99201.66;340298;28;1155;-73
2022/12/31 00:33:03;;;;;;;0.40;0.30;;;;;;;14.68;84.45;99206.69;339254;29;1099;-73
2022/12/31 00:33:15;;;;;;;0.40;0.30;;;;;;;14.70;84.43;99204.00;339493;28;1869;-73
2022/12/31 00:33:27;;;;;;;0.30;0.30;;;;;;;14.69;84.42;99205.78;340554;29;1299;-73
2022/12/31 00:33:40;;;;;;;0.20;0.20;;;;;;;14.76;84.32;99204.47;341199;29;746;-73
2022/12/31 00:33:53;;;;;;;0.20;0.20;;;;;;;14.80;84.25;99204.31;340558;29;1018;-72
2022/12/31 00:34:06;;;;;;;0.28;0.22;;;;;;;14.81;83.90;99208.59;340696;29;1464;-72
2022/12/31 00:34:18;;;;;;;0.20;0.20;;;;;;;14.83;83.95;99209.34;340641;28;1600;-70
2022/12/31 00:34:30;;;;;;;0.45;0.20;;;;;;;14.80;84.11;99220.00;340592;29;1215;-75
2022/12/31 00:34:42;;;;;;;0.40;0.20;;;;;;;14.83;83.89;99204.13;341005;29;771;-72
2022/12/31 00:34:54;;;;;;;0.28;0.20;;;;;;;14.80;83.87;99204.31;340615;29;1098;-74
2022/12/31 00:35:06;;;;;;;0.30;0.20;;;;;;;14.85;83.83;99207.50;341182;29;750;-74
2022/12/31 00:35:18;;;;;;;0.50;0.20;;;;;;;14.86;83.66;99214.44;340454;29;1346;-75
2022/12/31 00:35:35;;;;;;;0.90;0.30;;;;;;;14.92;83.39;99240.25;339479;28;1580;-74
2022/12/31 00:35:47;;;;;;;0.70;0.22;;;;;;;14.94;83.19;99206.97;340759;29;1101;-72
2022/12/31 00:36:13;;;;;;;0.20;0.20;;;;;;;14.95;83.09;99190.34;340518;29;1043;-74
2022/12/31 00:36:28;;;;;;;1.08;0.20;;;;;;;14.98;82.72;99205.88;340831;28;1464;-73
2022/12/31 00:36:41;;;;;;;0.45;0.20;;;;;;;14.89;82.85;99212.50;339631;29;1279;-72
2022/12/31 00:36:53;;;;;;;0.40;0.22;;;;;;;14.96;82.56;99203.34;339858;28;1253;-73
2022/12/31 00:37:05;;;;;;;0.35;0.20;;;;;;;14.95;82.51;99192.94;339625;29;1074;-73
2022/12/31 00:37:17;;;;;;;0.40;0.22;;;;;;;14.87;82.88;99205.63;340349;28;1218;-73
2022/12/31 00:37:29;;;;;;;0.35;0.20;;;;;;;14.93;82.62;99205.28;340042;28;1445;-73
2022/12/31 00:37:41;;;;;;;0.20;0.20;;;;;;;14.93;82.64;99200.03;341971;28;1933;-72
2022/12/31 00:37:53;;;;;;;0.20;0.20;;;;;;;14.96;82.37;99207.72;341489;28;1858;-71
2022/12/31 00:38:07;;;;;;;0.20;0.20;;;;;;;14.98;82.29;99203.25;341839;28;1050;-72
2022/12/31 00:38:19;;;;;;;0.50;0.20;;;;;;;15.00;81.76;99203.16;341008;28;1256;-72
2022/12/31 00:38:31;;;;;;;0.90;0.20;;;;;;;15.04;81.70;99181.97;340818;29;2019;-72
2022/12/31 00:38:45;;;;;;;0.60;0.22;;;;;;;15.07;81.92;99187.03;340902;28;1892;-72
2022/12/31 00:39:01;;;;;;;0.35;0.20;;;;;;;15.08;81.74;99209.63;340959;28;1921;-73
2022/12/31 00:39:13;;;;;;;0.50;0.30;;;;;;;15.13;81.68;99196.28;340591;29;1225;-73
2022/12/31 00:39:25;;;;;;;1.02;0.30;;;;;;;15.06;81.34;99201.03;341003;29;1608;-72
2022/12/31 00:39:37;;;;;;;0.90;0.30;;;;;;;15.05;81.82;99194.13;340862;29;1302;-72
2022/12/31 00:39:49;;;;;;;0.75;0.25;;;;;;;15.13;81.67;99191.03;340655;28;1631;-72
2022/12/31 00:40:02;;;;;;;1.30;0.32;;;;;;;15.20;81.37;99207.25;340590;29;1388;-73
2022/12/31 00:40:14;;;;;;;1.40;0.30;;;;;;;15.16;81.29;99212.66;340514;28;1382;-73
2022/12/31 00:40:28;;;;;;;1.13;0.25;;;;;;;15.21;80.91;99208.91;340657;29;1265;-72
2022/12/31 00:40:40;;;;;;;1.42;0.22;;;;;;;15.20;80.34;99202.84;341000;28;987;-73
2022/12/31 00:40:52;;;;;;;3.75;0.25;;;;;;;15.31;80.11;99197.84;340450;28;1746;-72
2022/12/31 00:41:04;;;;;;;3.70;0.20;;;;;;;15.31;79.93;99195.22;340528;29;1049;-72
2022/12/31 00:41:17;;;;;;;0.10;0.10;;;;;;;15.32;79.93;99173.31;340587;28;1319;-73
2022/12/31 00:41:30;;;;;;;0.40;0.20;;;;;;;15.34;79.72;99204.66;339560;28;2781;-74
2022/12/31 00:41:42;;;;;;;0.60;0.30;;;;;;;15.30;79.61;99192.69;338024;29;2951;-72
2022/12/31 00:41:55;;;;;;;0.30;0.20;;;;;;;15.26;79.71;99197.25;338267;29;1763;-72
2022/12/31 00:42:07;;;;;;;0.30;0.25;;;;;;;15.26;79.81;99186.78;339809;29;1250;-71
2022/12/31 00:42:19;;;;;;;0.30;0.30;;;;;;;15.28;79.94;99202.41;340823;28;1211;-71
2022/12/31 00:42:31;;;;;;;0.70;0.40;;;;;;;15.29;79.72;99196.22;340498;29;1031;-71
2022/12/31 00:42:43;;;;;;;0.80;0.40;;;;;;;15.30;79.92;99203.97;339968;28;1534;-71
2022/12/31 00:42:55;;;;;;;0.73;0.30;;;;;;;15.33;79.60;99197.72;342565;28;1065;-73
2022/12/31 00:43:07;;;;;;;0.47;0.30;;;;;;;15.32;79.58;99196.88;340144;28;2102;-72
2022/12/31 00:43:18;;;;;;;0.30;0.20;;;;;;;15.28;79.74;99189.31;340325;28;1891;-73
2022/12/31 00:43:33;;;;;;;1.30;0.28;;;;;;;15.30;79.68;99203.16;340616;29;1140;-73
2022/12/31 00:43:46;;;;;;;1.50;0.30;;;;;;;15.23;79.53;99193.97;341036;28;1209;-72
2022/12/31 00:43:58;;;;;;;0.30;0.25;;;;;;;15.23;79.75;99207.06;341814;28;1049;-72
2022/12/31 00:44:11;;;;;;;0.32;0.28;;;;;;;15.13;80.19;99218.06;341259;28;1870;-73
2022/12/31 00:44:23;;;;;;;0.30;0.30;;;;;;;15.12;80.18;99215.53;340746;28;1355;-72
2022/12/31 00:44:35;;;;;;;0.30;0.30;;;;;;;15.20;79.90;99191.53;341007;28;1026;-72
2022/12/31 00:44:49;;;;;;;0.20;0.20;;;;;;;15.18;79.58;99209.94;341316;28;1183;-73
2022/12/31 00:45:02;;;;;;;0.20;0.20;;;;;;;15.30;79.43;99208.38;339451;29;1234;-72
2022/12/31 00:45:14;;;;;;;0.20;0.20;;;;;;;15.30;79.36;99200.53;338130;28;1845;-72
2022/12/31 00:45:26;;;;;;;0.20;0.20;;;;;;;15.34;79.18;99200.25;340460;28;1321;-73
2022/12/31 00:45:38;;;;;;;0.20;0.20;;;;;;;15.36;78.87;99208.84;339422;29;1155;-72
2022/12/31 00:45:50;;;;;;;0.20;0.20;;;;;;;15.41;78.58;99205.94;339190;29;1130;-73
2022/12/31 00:46:04;;;;;;;0.20;0.20;;;;;;;15.33;78.74;99213.44;339553;29;1337;-72
2022/12/31 00:46:17;;;;;;;0.30;0.30;;;;;;;15.33;78.79;99213.44;339844;28;1808;-72
2022/12/31 00:46:30;;;;;;;0.30;0.30;;;;;;;15.28;78.96;99216.31;339476;28;1864;-73
2022/12/31 00:46:43;;;;;;;0.40;0.25;;;;;;;15.34;79.04;99209.88;339579;29;1243;-74
2022/12/31 00:46:54;;;;;;;0.40;0.20;;;;;;;15.33;78.90;99219.53;342697;28;656;-72
2022/12/31 00:47:06;;;;;;;0.20;0.20;;;;;;;15.41;78.32;99199.88;340477;28;1801;-71
2022/12/31 00:47:18;;;;;;;0.20;0.20;;;;;;;15.45;78.21;99207.44;342136;28;1467;-72
2022/12/31 00:47:30;;;;;;;0.28;0.20;;;;;;;15.42;78.13;99191.94;342155;28;1162;-74
2022/12/31 00:47:42;;;;;;;0.80;0.22;;;;;;;15.43;78.09;99208.50;342870;28;1116;-73
2022/12/31 00:47:54;;;;;;;0.90;0.22;;;;;;;15.37;78.35;99218.41;342282;28;1087;-72
2022/12/31 00:48:06;;;;;;;0.90;0.30;;;;;;;15.42;78.39;99223.38;342096;28;1030;-72
2022/12/31 00:48:19;;;;;;;0.20;0.20;;;;;;;15.44;78.30;99215.44;338525;29;1887;-72
2022/12/31 00:48:32;;;;;;;0.20;0.20;;;;;;;15.46;78.08;99217.00;339318;29;1675;-73
2022/12/31 00:48:44;;;;;;;0.20;0.20;;;;;;;15.44;77.92;99184.84;338166;29;1312;-72
2022/12/31 00:48:57;;;;;;;0.30;0.30;;;;;;;15.44;78.13;99179.59;338039;29;775;-72
2022/12/31 00:49:09;;;;;;;0.30;0.30;;;;;;;15.41;78.15;99219.06;339331;29;1729;-72
2022/12/31 00:49:22;;;;;;;0.95;0.30;;;;;;;15.41;78.22;99221.66;341016;28;1357;-74
2022/12/31 00:49:34;;;;;;;0.80;0.20;;;;;;;15.47;77.69;99195.09;340441;28;1704;-74
2022/12/31 00:49:46;;;;;;;0.30;0.30;;;;;;;15.43;77.90;99217.19;338530;29;732;-72
2022/12/31 00:49:58;;;;;;;0.43;0.30;;;;;;;15.46;77.90;99206.53;338171;29;1054;-72
2022/12/31 00:50:10;;;;;;;0.70;0.30;;;;;;;15.44;77.94;99229.34;338380;29;1026;-72
2022/12/31 00:50:22;;;;;;;0.75;0.30;;;;;;;15.47;77.79;99189.88;337704;29;1346;-73
2022/12/31 00:50:35;;;;;;;0.55;0.25;;;;;;;15.57;77.51;99211.97;337938;29;2298;-72
2022/12/31 00:50:47;;;;;;;0.20;0.20;;;;;;;15.58;77.22;99218.91;337070;29;1799;-72
2022/12/31 00:51:00;;;;;;;0.25;0.20;;;;;;;15.54;77.67;99211.31;337155;29;1040;-72
2022/12/31 00:51:14;;;;;;;0.73;0.30;;;;;;;15.45;77.46;99207.44;336904;29;1161;-72
2022/12/31 00:51:27;;;;;;;1.10;0.25;;;;;;;15.51;77.33;99207.13;336660;29;2228;-71
2022/12/31 00:51:39;;;;;;;1.10;0.28;;;;;;;15.57;77.27;99214.59;338489;28;1436;-72
2022/12/31 00:51:51;;;;;;;0.65;0.20;;;;;;;15.54;77.26;99217.41;339274;29;1289;-74
2022/12/31 00:52:03;;;;;;;1.60;0.25;;;;;;;15.58;76.96;99207.56;339483;29;1019;-72
2022/12/31 00:52:17;;;;;;;2.20;0.30;;;;;;;15.61;76.96;99233.56;339610;29;1304;-71
2022/12/31 00:52:29;;;;;;;1.05;0.30;;;;;;;15.57;77.04;99227.69;340754;29;1084;-73
2022/12/31 00:52:41;;;;;;;0.75;0.25;;;;;;;15.65;76.94;99244.72;341109;29;1014;-73
2022/12/31 00:52:53;;;;;;;0.32;0.30;;;;;;;15.63;76.89;99200.25;342384;28;1096;-72
2022/12/31 00:53:05;;;;;;;1.40;0.40;;;;;;;15.58;76.92;99228.53;341936;28;1003;-72
2022/12/31 00:53:17;;;;;;;1.30;0.30;;;;;;;15.63;76.76;99215.16;341751;28;1666;-72
2022/12/31 00:53:29;;;;;;;1.23;0.30;;;;;;;15.58;76.83;99207.56;341479;28;1758;-72
2022/12/31 00:53:41;;;;;;;0.30;0.22;;;;;;;15.57;77.33;99238.19;341944;28;1078;-72
2022/12/31 00:53:57;;;;;;;0.35;0.20;;;;;;;15.53;77.27;99226.19;340924;28;1573;-72
2022/12/31 00:54:09;;;;;;;0.40;0.20;;;;;;;15.47;77.51;99226.53;340673;28;1870;-70
2022/12/31 00:54:21;;;;;;;0.50;0.28;;;;;;;15.54;77.56;99227.88;341221;28;1276;-72
2022/12/31 00:54:33;;;;;;;1.30;0.32;;;;;;;15.60;77.27;99215.34;342704;28;1082;-71
2022/12/31 00:54:45;;;;;;;1.10;0.40;;;;;;;15.58;77.16;99250.31;343208;28;1522;-72
2022/12/31 00:54:57;;;;;;;1.35;0.38;;;;;;;15.58;77.20;99247.72;341085;28;1660;-73
2022/12/31 00:55:09;;;;;;;1.00;0.30;;;;;;;15.56;77.14;99238.25;341687;28;1186;-71
2022/12/31 00:55:20;;;;;;;1.00;0.30;;;;;;;15.57;77.32;99226.84;339939;28;1639;-71
2022/12/31 00:55:32;;;;;;;0.20;0.20;;;;;;;15.53;77.44;99220.97;339124;29;1073;-72
2022/12/31 00:55:47;;;;;;;0.50;0.28;;;;;;;15.57;77.48;99201.50;339572;29;1067;-72
2022/12/31 00:56:20;;;;;;;0.50;0.30;;;;;;;15.62;77.22;99223.97;339329;29;1817;-71
2022/12/31 00:56:32;;;;;;;0.90;0.20;;;;;;;15.53;77.51;99220.97;339649;28;1060;-72
2022/12/31 00:56:44;;;;;;;0.30;0.30;;;;;;;15.53;77.54;99234.06;340599;29;1269;-71
2022/12/31 00:56:56;;;;;;;0.30;0.30;;;;;;;15.47;77.68;99204.75;341659;28;1053;-73
2022/12/31 00:57:08;;;;;;;0.30;0.30;;;;;;;15.50;77.88;99200.19;340466;28;1755;-72
2022/12/31 00:57:20;;;;;;;0.70;0.30;;;;;;;15.51;77.84;99228.06;340448;28;1230;-71
2022/12/31 00:57:32;;;;;;;0.70;0.30;;;;;;;15.54;77.92;99233.09;342618;28;1228;-72
2022/12/31 00:57:44;;;;;;;0.22;0.22;;;;;;;15.56;77.80;99228.63;341746;28;1617;-71
2022/12/31 00:57:57;;;;;;;0.30;0.20;;;;;;;15.56;77.55;99215.53;340992;28;1648;-71
2022/12/31 00:58:08;;;;;;;0.30;0.20;;;;;;;15.57;77.61;99253.03;339728;28;1912;-72
2022/12/31 00:58:20;;;;;;;1.20;0.30;;;;;;;15.50;77.90;99239.47;340399;28;1319;-72
2022/12/31 00:58:34;;;;;;;1.20;0.30;;;;;;;15.47;77.92;99221.31;343746;28;1153;-74
2022/12/31 00:58:47;;;;;;;1.25;0.30;;;;;;;15.48;78.21;99235.25;346121;28;1191;-71
2022/12/31 00:59:00;;;;;;;0.57;0.30;;;;;;;15.43;78.43;99230.28;346511;28;966;-72
2022/12/31 00:59:12;;;;;;;0.60;0.30;;;;;;;15.43;78.48;99230.28;345863;28;1832;-72
2022/12/31 00:59:24;;;;;;;0.40;0.20;;;;;;;15.53;78.20;99220.97;340764;29;1288;-72
2022/12/31 00:59:36;;;;;;;0.30;0.20;;;;;;;15.60;78.11;99250.25;340628;29;1023;-73
2022/12/31 00:59:48;;;;;;;0.30;0.28;;;;;;;15.56;78.11;99239.09;340333;29;1030;-73
2022/12/31 01:00:00;;;;;;;0.40;0.30;;;;;;;15.60;77.96;99249.41;340446;29;1261;-73
2022/12/31 01:00:14;;;;;;;1.50;0.40;;;;;;;15.57;77.85;99253.91;341061;28;1185;-72
2022/12/31 01:00:26;;;;;;;1.50;0.30;;;;;;;15.49;78.28;99229.06;340888;28;1705;-71
2022/12/31 01:00:38;;;;;;;0.85;0.30;;;;;;;15.48;78.06;99243.97;341187;28;1602;-72
2022/12/31 01:00:51;;;;;;;1.33;0.30;;;;;;;15.51;78.52;99211.50;340974;28;1229;-71
2022/12/31 01:01:08;;;;;;;2.60;0.30;;;;;;;15.50;78.53;99226.38;340820;28;1054;-73
2022/12/31 01:01:26;;;;;;;1.58;0.30;;;;;;;15.51;78.38;99238.56;340771;28;1286;-71
2022/12/31 01:01:39;;;;;;;0.25;0.25;;;;;;;15.49;78.55;99250.91;339864;28;1611;-73
2022/12/31 01:01:51;;;;;;;0.25;0.25;;;;;;;15.46;78.47;99217.00;341154;28;1071;-73
2022/12/31 01:02:03;;;;;;;0.28;0.28;;;;;;;15.49;78.60;99243.03;341125;28;1080;-72
2022/12/31 01:02:15;;;;;;;0.30;0.30;;;;;;;15.52;78.57;99202.72;343183;28;1012;-73
2022/12/31 01:02:28;;;;;;;0.20;0.20;;;;;;;15.49;78.72;99266.63;341437;28;1855;-69